If you wish to contribute or participate in the discussions about articles you are invited to join SKYbrary as a registered user

 Actions

Saint-Dizier-Robinson (BA 113) Air Base

From SKYbrary Wiki

LFSI
Airport
ICAO: LFSI
Summary
Name Saint-Dizier-Robinson (BA 113) Air Base
Region Europe
Territory France FR.gif
Location , Champagne-Ardenne
Serving St.-dizier
Elevation 139.598 m
458 ft
458 ft139.598 m
Type medium airport
Coordinates 48° 38' 9.63" N, 4° 53' 57.90" E
Runways
Designator Length Width Surface ROPS
11/29 2412 m7,913.386 ft
45 m147.638 ft
ASP /


METAR
Observation LFSI 142200Z AUTO 06008KT CAVOK 10/M01 Q1025
Station St-Dizier
Date/Time 14 May 2019 22:00:00
Wind direction 60°
Wind speed 08 kts
Lowest cloud amount clouds and visibility OK
Temperature 10°C
Dew point
Humidity 46%
QNH 1025 hPa
Weather condition n/a